Time;durP1;ratioP1;P1;durP2;ratioP2;P2;SDS_P1;SDS_P2;PMS_P1;PMS_P2;Temp;Humidity;BMP_temperature;BMP_pressure;BME280_temperature;BME280_humidity;BME280_pressure;Samples;Min_cycle;Max_cycle;Signal;HPM_P1;HPM_P2
2021/09/18 00:02:09;;;;;;;23.80;12.60;;;17.40;82.60;;;;;;5034868;28;20025;-64
2021/09/18 00:04:35;;;;;;;30.35;15.43;;;17.40;82.60;;;;;;5034751;28;20017;-66
2021/09/18 00:07:00;;;;;;;38.08;17.70;;;17.50;82.60;;;;;;5034721;28;20025;-65
2021/09/18 00:09:26;;;;;;;48.00;23.02;;;17.50;82.80;;;;;;5034642;28;20041;-65
2021/09/18 00:11:52;;;;;;;51.50;23.42;;;17.50;83.10;;;;;;5034732;28;20025;-65
2021/09/18 00:14:19;;;;;;;60.13;27.15;;;17.50;83.30;;;;;;5034862;28;20029;-65
2021/09/18 00:16:45;;;;;;;64.85;29.75;;;17.50;83.80;;;;;;5034704;28;20137;-64
2021/09/18 00:19:10;;;;;;;59.33;28.60;;;17.50;84.10;;;;;;5034747;28;20144;-63
2021/09/18 00:21:36;;;;;;;51.08;24.20;;;17.50;84.10;;;;;;5034386;28;20053;-65
2021/09/18 00:24:02;;;;;;;54.00;26.48;;;17.50;83.70;;;;;;5034410;28;20025;-64
2021/09/18 00:26:27;;;;;;;46.00;23.25;;;17.60;84.70;;;;;;5034412;28;20025;-64
2021/09/18 00:28:53;;;;;;;40.08;20.67;;;17.60;84.40;;;;;;5034382;28;20025;-65
2021/09/18 00:31:19;;;;;;;31.15;17.17;;;17.60;84.50;;;;;;5033585;28;20028;-65
2021/09/18 00:33:44;;;;;;;29.35;15.77;;;17.60;84.60;;;;;;5034313;28;20100;-64
2021/09/18 00:36:10;;;;;;;30.33;16.80;;;17.60;84.20;;;;;;5034023;28;20506;-65
2021/09/18 00:38:35;;;;;;;26.85;15.63;;;17.70;84.60;;;;;;5034210;28;20029;-64
2021/09/18 00:41:01;;;;;;;35.88;18.65;;;17.70;84.40;;;;;;5034100;28;20022;-64
2021/09/18 00:43:27;;;;;;;34.33;19.08;;;17.70;84.90;;;;;;5032846;28;20052;-65
2021/09/18 00:45:52;;;;;;;31.00;17.60;;;17.70;84.90;;;;;;5034033;28;20053;-65
2021/09/18 00:48:18;;;;;;;38.08;20.02;;;17.70;84.40;;;;;;5033970;28;20021;-66
2021/09/18 00:50:44;;;;;;;30.92;17.30;;;17.80;84.80;;;;;;5034019;28;20064;-65
2021/09/18 00:53:09;;;;;;;41.53;21.77;;;17.80;84.80;;;;;;5033855;28;20133;-64
2021/09/18 00:55:35;;;;;;;45.28;21.92;;;17.80;85.60;;;;;;5034161;28;20056;-65
2021/09/18 00:58:01;;;;;;;40.35;21.40;;;17.80;86.10;;;;;;5033865;28;20032;-65
2021/09/18 01:00:27;;;;;;;83.88;35.45;;;17.80;85.70;;;;;;5033714;28;20018;-66
2021/09/18 01:02:53;;;;;;;83.60;36.45;;;17.80;86.70;;;;;;5033707;28;20025;-64
2021/09/18 01:05:19;;;;;;;109.45;44.28;;;17.80;87.40;;;;;;5033557;28;20014;-65
2021/09/18 01:07:45;;;;;;;95.25;39.75;;;17.80;88.00;;;;;;5033663;28;20033;-65
2021/09/18 01:10:11;;;;;;;90.18;38.58;;;17.80;88.00;;;;;;5032357;28;20025;-65
2021/09/18 01:13:04;;;;;;;100.88;41.30;;;17.70;87.80;;;;;;5033352;28;20056;-64
2021/09/18 01:15:31;;;;;;;109.78;44.05;;;17.70;89.50;;;;;;5033425;28;20053;-65
2021/09/18 01:17:58;;;;;;;96.57;38.50;;;17.70;89.30;;;;;;5033379;28;20116;-65
2021/09/18 01:20:26;;;;;;;86.57;35.65;;;17.70;89.30;;;;;;5033346;28;20029;-65
2021/09/18 01:22:54;;;;;;;90.05;34.22;;;17.60;89.10;;;;;;5033535;28;20014;-65
2021/09/18 01:25:20;;;;;;;100.95;36.35;;;17.60;89.70;;;;;;5033537;28;20396;-65
2021/09/18 01:27:46;;;;;;;84.75;31.88;;;17.60;90.00;;;;;;5033419;28;20025;-65
2021/09/18 01:30:23;;;;;;;69.60;28.48;;;17.60;89.90;;;;;;5033149;28;20029;-66
2021/09/18 01:32:49;;;;;;;57.08;23.83;;;17.60;90.20;;;;;;5033155;28;20064;-65
2021/09/18 01:35:15;;;;;;;56.17;23.17;;;17.60;90.00;;;;;;5031735;28;20430;-64
2021/09/18 01:37:42;;;;;;;55.75;24.00;;;17.60;90.10;;;;;;5033027;28;20025;-64
2021/09/18 01:40:08;;;;;;;74.13;26.40;;;17.60;90.10;;;;;;5032976;28;20386;-64
2021/09/18 01:42:34;;;;;;;65.25;27.98;;;17.60;90.30;;;;;;5032354;28;20025;-64
2021/09/18 01:44:59;;;;;;;49.45;22.83;;;17.70;90.70;;;;;;5032580;28;20013;-65
2021/09/18 01:47:44;;;;;;;39.72;20.42;;;17.60;90.50;;;;;;5032857;28;20053;-65
2021/09/18 01:50:31;;;;;;;31.88;18.55;;;17.60;90.60;;;;;;5033075;28;20030;-65
2021/09/18 01:53:01;;;;;;;29.50;17.17;;;17.60;90.80;;;;;;5032499;28;20060;-65
2021/09/18 01:55:27;;;;;;;24.13;16.38;;;17.60;90.70;;;;;;5033055;28;20091;-65
2021/09/18 01:57:55;;;;;;;23.55;16.10;;;17.60;90.80;;;;;;5032988;28;20087;-65
2021/09/18 02:00:22;;;;;;;21.58;15.23;;;17.60;90.70;;;;;;5032817;28;20033;-65
2021/09/18 02:02:48;;;;;;;22.92;16.20;;;17.50;90.60;;;;;;5032772;28;20083;-65
2021/09/18 02:05:16;;;;;;;20.73;14.65;;;17.60;90.70;;;;;;5032752;28;20033;-65
2021/09/18 02:07:42;;;;;;;20.27;14.32;;;17.60;90.60;;;;;;5032514;28;20041;-65
2021/09/18 02:10:11;;;;;;;17.02;13.38;;;17.50;90.50;;;;;;5032703;28;20435;-65
2021/09/18 02:12:37;;;;;;;18.35;14.13;;;17.50;90.50;;;;;;5032428;28;20026;-66
2021/09/18 02:15:05;;;;;;;19.42;14.40;;;17.60;90.50;;;;;;5031172;28;20037;-65
2021/09/18 02:17:31;;;;;;;20.85;15.20;;;17.50;90.50;;;;;;5032223;28;20040;-64
2021/09/18 02:19:56;;;;;;;19.42;16.10;;;17.60;90.70;;;;;;5032524;28;20029;-65
2021/09/18 02:22:22;;;;;;;19.23;15.45;;;17.60;90.60;;;;;;5032471;28;20025;-66
2021/09/18 02:24:48;;;;;;;20.48;16.92;;;17.50;90.60;;;;;;5032090;28;20029;-65
2021/09/18 02:27:13;;;;;;;21.85;17.00;;;17.50;90.60;;;;;;5032190;28;20036;-65
2021/09/18 02:29:39;;;;;;;19.67;16.10;;;17.50;90.70;;;;;;5032174;28;20432;-65
2021/09/18 02:32:05;;;;;;;17.73;14.23;;;17.50;90.50;;;;;;5032082;28;20026;-65
2021/09/18 02:34:31;;;;;;;20.20;17.02;;;17.50;90.50;;;;;;5032050;28;20108;-66
2021/09/18 02:36:57;;;;;;;19.45;17.05;;;17.50;90.60;;;;;;5031924;28;20441;-65
2021/09/18 02:39:23;;;;;;;20.35;17.70;;;17.60;90.40;;;;;;5031978;28;20026;-66
2021/09/18 02:41:48;;;;;;;18.38;15.23;;;17.60;90.30;;;;;;5031863;28;20018;-64
2021/09/18 02:44:14;;;;;;;18.40;15.10;;;17.60;89.80;;;;;;5031856;28;20029;-64
2021/09/18 02:46:39;;;;;;;17.35;14.82;;;17.60;89.70;;;;;;5031822;28;20490;-64
2021/09/18 02:49:05;;;;;;;17.95;13.75;;;17.70;89.30;;;;;;5031834;28;20029;-66
2021/09/18 02:51:31;;;;;;;18.15;13.63;;;17.70;88.70;;;;;;5031731;28;20041;-65
2021/09/18 02:53:58;;;;;;;15.73;13.63;;;17.70;88.40;;;;;;5031588;28;20057;-65
2021/09/18 02:56:24;;;;;;;15.32;13.32;;;17.70;88.40;;;;;;5031576;28;20536;-65
2021/09/18 02:58:50;;;;;;;18.42;13.85;;;17.70;87.90;;;;;;5031680;28;20105;-65
2021/09/18 03:01:15;;;;;;;16.70;13.40;;;17.80;87.60;;;;;;5031832;28;20097;-65
2021/09/18 03:03:41;;;;;;;15.68;13.25;;;17.70;87.50;;;;;;5032029;28;20033;-65
2021/09/18 03:06:07;;;;;;;15.02;12.85;;;17.70;87.80;;;;;;5031729;28;20037;-66
2021/09/18 03:08:32;;;;;;;16.17;13.20;;;17.70;87.60;;;;;;5031553;28;20029;-64
2021/09/18 03:10:58;;;;;;;17.60;13.57;;;17.70;87.60;;;;;;5031537;28;20029;-64
2021/09/18 03:13:24;;;;;;;16.02;13.80;;;17.70;87.10;;;;;;5031582;28;20037;-65
2021/09/18 03:15:49;;;;;;;16.80;13.35;;;17.70;86.80;;;;;;5031926;28;20026;-64
2021/09/18 03:18:15;;;;;;;16.52;13.40;;;17.70;86.50;;;;;;5031440;28;20057;-64
2021/09/18 03:20:41;;;;;;;15.73;13.10;;;17.70;86.40;;;;;;5031337;28;20030;-64
2021/09/18 03:23:08;;;;;;;17.02;13.90;;;17.70;86.40;;;;;;5031309;28;20030;-64
2021/09/18 03:25:34;;;;;;;16.08;12.63;;;17.70;86.70;;;;;;5031468;28;20021;-65
2021/09/18 03:28:00;;;;;;;14.55;12.95;;;17.70;87.10;;;;;;5031514;28;20036;-64
2021/09/18 03:30:26;;;;;;;16.20;12.68;;;17.60;87.20;;;;;;5031670;28;20376;-65
2021/09/18 03:32:51;;;;;;;16.17;13.63;;;17.60;87.40;;;;;;5031413;28;20033;-65
2021/09/18 03:35:17;;;;;;;17.67;13.82;;;17.60;87.20;;;;;;5031265;28;20037;-65
2021/09/18 03:37:43;;;;;;;15.93;13.23;;;17.70;86.90;;;;;;5031258;28;20033;-64
2021/09/18 03:40:11;;;;;;;15.80;13.25;;;17.70;86.90;;;;;;5031279;28;20104;-64
2021/09/18 03:42:37;;;;;;;15.25;13.45;;;17.70;86.80;;;;;;5031231;28;20473;-65
2021/09/18 03:45:05;;;;;;;16.20;13.68;;;17.70;86.90;;;;;;5031285;28;20053;-64
2021/09/18 03:47:30;;;;;;;16.45;13.63;;;17.70;86.70;;;;;;5031176;28;20044;-65
2021/09/18 03:49:56;;;;;;;15.60;13.85;;;17.80;86.70;;;;;;5031014;28;20104;-66
2021/09/18 03:52:26;;;;;;;15.32;13.73;;;17.80;87.20;;;;;;5031073;28;20058;-66
2021/09/18 03:54:55;;;;;;;17.63;14.45;;;17.70;87.20;;;;;;5031286;28;20025;-67
2021/09/18 03:57:21;;;;;;;15.45;13.73;;;17.70;87.50;;;;;;5031343;28;20358;-66
2021/09/18 03:59:47;;;;;;;17.15;14.05;;;17.80;87.30;;;;;;5030753;28;20072;-64
2021/09/18 04:02:12;;;;;;;16.15;13.93;;;17.80;87.30;;;;;;5030697;28;20026;-65
2021/09/18 04:04:38;;;;;;;16.77;14.82;;;17.80;87.30;;;;;;5030974;28;20403;-65
2021/09/18 04:07:04;;;;;;;19.30;14.57;;;17.80;87.50;;;;;;5032772;28;20037;-66
2021/09/18 04:09:30;;;;;;;16.88;13.88;;;17.80;87.60;;;;;;5034808;28;20149;-65
2021/09/18 04:11:56;;;;;;;17.67;15.25;;;17.80;87.90;;;;;;5034755;28;20034;-66
2021/09/18 04:14:21;;;;;;;16.98;15.10;;;17.80;87.90;;;;;;5034602;28;20030;-65
2021/09/18 04:16:47;;;;;;;16.98;14.43;;;17.90;87.80;;;;;;5034201;28;20056;-66
2021/09/18 04:19:13;;;;;;;16.20;14.50;;;17.90;87.90;;;;;;5034310;28;20353;-65
2021/09/18 04:21:39;;;;;;;16.33;14.57;;;18.00;87.80;;;;;;5034271;28;20104;-66
2021/09/18 04:24:05;;;;;;;18.23;15.23;;;17.90;88.10;;;;;;5034241;28;20036;-67
2021/09/18 04:26:32;;;;;;;18.30;14.68;;;18.00;88.00;;;;;;5033971;28;20022;-65
2021/09/18 04:28:58;;;;;;;17.27;15.27;;;17.90;88.10;;;;;;5034075;28;20469;-66
2021/09/18 04:31:23;;;;;;;18.13;15.38;;;18.00;88.60;;;;;;5033951;28;20040;-65
2021/09/18 04:33:49;;;;;;;18.10;15.60;;;18.00;88.60;;;;;;5034188;28;20068;-66
2021/09/18 04:36:15;;;;;;;19.02;16.30;;;18.00;88.60;;;;;;5034166;28;20067;-66
2021/09/18 04:38:41;;;;;;;18.63;16.63;;;18.10;88.20;;;;;;5034106;28;20492;-65
2021/09/18 04:41:06;;;;;;;19.98;16.05;;;18.10;88.30;;;;;;5033829;28;20103;-65
2021/09/18 04:43:32;;;;;;;20.00;17.05;;;18.10;88.10;;;;;;5033867;28;20056;-67
2021/09/18 04:45:58;;;;;;;18.20;15.13;;;18.20;87.90;;;;;;5034106;28;20045;-67
2021/09/18 04:48:23;;;;;;;19.60;15.77;;;18.20;87.80;;;;;;5033809;28;20159;-66
2021/09/18 04:50:49;;;;;;;20.80;18.05;;;18.30;87.50;;;;;;5033946;28;20022;-66
2021/09/18 04:53:15;;;;;;;22.98;18.23;;;18.40;87.30;;;;;;5033969;28;20500;-65
2021/09/18 04:55:41;;;;;;;16.90;15.10;;;18.40;87.20;;;;;;5034008;28;20029;-65
2021/09/18 04:58:07;;;;;;;21.40;17.63;;;18.40;87.10;;;;;;5033800;28;20045;-65
2021/09/18 05:00:33;;;;;;;17.52;14.95;;;18.40;86.90;;;;;;5033617;28;20021;-66
2021/09/18 05:02:58;;;;;;;20.75;17.95;;;18.40;87.00;;;;;;5033670;28;20373;-67
2021/09/18 05:05:24;;;;;;;19.60;16.27;;;18.60;86.40;;;;;;5033505;28;20387;-66
2021/09/18 05:07:49;;;;;;;18.90;16.63;;;18.60;86.20;;;;;;5033554;28;20467;-66
2021/09/18 05:10:15;;;;;;;20.20;16.92;;;18.60;86.00;;;;;;5033385;28;20025;-65
2021/09/18 05:12:41;;;;;;;23.02;16.17;;;18.70;85.90;;;;;;5033507;28;20108;-66
2021/09/18 05:15:07;;;;;;;24.67;17.13;;;18.70;85.90;;;;;;5033269;28;20060;-65
2021/09/18 05:17:33;;;;;;;22.90;17.27;;;18.80;85.70;;;;;;5032861;28;20025;-66
2021/09/18 05:19:59;;;;;;;21.75;16.40;;;18.80;85.40;;;;;;5033322;28;20029;-67
2021/09/18 05:22:25;;;;;;;19.95;15.50;;;18.90;85.20;;;;;;5033284;28;20026;-66
2021/09/18 05:24:51;;;;;;;25.00;17.15;;;18.90;85.10;;;;;;5033265;28;20030;-65
2021/09/18 05:27:17;;;;;;;29.20;19.45;;;19.00;85.30;;;;;;5033253;28;20029;-65
2021/09/18 05:29:44;;;;;;;38.80;23.35;;;19.00;84.50;;;;;;5032768;28;20083;-68
2021/09/18 05:32:10;;;;;;;41.47;22.00;;;19.10;84.00;;;;;;5033113;28;20029;-67
2021/09/18 05:34:36;;;;;;;32.25;19.23;;;19.10;84.00;;;;;;5032998;28;20489;-67
2021/09/18 05:37:03;;;;;;;30.30;19.05;;;19.10;84.30;;;;;;5032770;28;20105;-67
2021/09/18 05:39:28;;;;;;;30.40;19.85;;;19.20;83.90;;;;;;5032955;28;20022;-65
2021/09/18 05:41:54;;;;;;;27.10;18.50;;;19.30;83.70;;;;;;5032998;28;20537;-66
2021/09/18 05:44:20;;;;;;;19.90;16.38;;;19.30;83.20;;;;;;5033020;28;20517;-67
2021/09/18 05:46:45;;;;;;;22.25;16.92;;;19.30;83.30;;;;;;5033117;28;20022;-68
2021/09/18 05:49:11;;;;;;;19.63;16.17;;;19.30;83.30;;;;;;5032708;28;20017;-65
2021/09/18 05:51:37;;;;;;;17.02;14.20;;;19.30;83.30;;;;;;5032500;28;20046;-66
2021/09/18 05:54:03;;;;;;;18.85;16.80;;;19.30;83.50;;;;;;5032628;28;20044;-66
2021/09/18 05:56:29;;;;;;;18.67;15.60;;;19.50;82.80;;;;;;5032683;28;20064;-65
2021/09/18 05:58:54;;;;;;;19.70;16.73;;;19.50;82.60;;;;;;5032306;28;20056;-67
2021/09/18 06:01:20;;;;;;;20.02;16.40;;;19.50;82.40;;;;;;5032328;28;20021;-67
2021/09/18 06:03:45;;;;;;;21.65;17.40;;;19.50;82.30;;;;;;5032375;28;20021;-68
2021/09/18 06:06:11;;;;;;;18.48;15.85;;;19.50;82.30;;;;;;5032240;28;20060;-66
2021/09/18 06:08:37;;;;;;;20.73;17.27;;;19.50;82.40;;;;;;5032224;28;20025;-68
2021/09/18 06:11:02;;;;;;;18.60;15.88;;;19.60;82.10;;;;;;5032079;28;20408;-65
2021/09/18 06:13:28;;;;;;;17.75;15.80;;;19.50;82.10;;;;;;5032786;28;20040;-67
2021/09/18 06:15:54;;;;;;;18.58;16.52;;;19.50;82.20;;;;;;5032228;28;20037;-68
2021/09/18 06:18:20;;;;;;;20.35;16.92;;;19.70;82.20;;;;;;5032066;28;20033;-65
2021/09/18 06:20:46;;;;;;;19.95;16.92;;;19.70;81.70;;;;;;5032217;28;20061;-68
2021/09/18 06:23:11;;;;;;;21.00;16.33;;;19.70;81.60;;;;;;5032429;28;20040;-68
2021/09/18 06:25:37;;;;;;;19.10;16.30;;;19.80;81.90;;;;;;5031102;28;20021;-68
2021/09/18 06:28:03;;;;;;;17.13;14.10;;;19.80;81.70;;;;;;5032082;28;20542;-66
2021/09/18 06:30:29;;;;;;;22.15;17.67;;;19.90;81.70;;;;;;5031551;28;20025;-66
2021/09/18 06:32:54;;;;;;;21.15;16.70;;;20.00;80.70;;;;;;5031870;28;20465;-67
2021/09/18 06:35:20;;;;;;;22.77;17.75;;;20.10;80.90;;;;;;5031971;28;20033;-65
2021/09/18 06:37:48;;;;;;;21.27;16.35;;;20.10;80.70;;;;;;5031755;28;20026;-66
2021/09/18 06:40:17;;;;;;;25.15;18.00;;;20.20;80.60;;;;;;5032003;28;20026;-67
2021/09/18 06:42:43;;;;;;;22.23;16.75;;;20.20;80.40;;;;;;5031790;28;20028;-68
2021/09/18 06:45:10;;;;;;;23.45;18.30;;;20.20;80.60;;;;;;5031970;28;20368;-68
2021/09/18 06:47:36;;;;;;;21.55;17.27;;;20.30;80.20;;;;;;5031811;28;20033;-67
2021/09/18 06:50:03;;;;;;;21.17;17.40;;;20.20;80.10;;;;;;5031826;28;20034;-66
2021/09/18 06:52:29;;;;;;;23.25;16.92;;;20.20;80.40;;;;;;5031682;28;20053;-67
2021/09/18 06:54:55;;;;;;;21.75;17.35;;;20.20;80.70;;;;;;5031458;28;20036;-66
2021/09/18 06:57:20;;;;;;;29.65;20.58;;;20.30;80.50;;;;;;5031546;28;20026;-66
2021/09/18 06:59:46;;;;;;;31.63;21.58;;;20.30;80.20;;;;;;5031628;28;20030;-68
2021/09/18 07:02:12;;;;;;;30.48;21.48;;;20.40;80.60;;;;;;5031672;28;20044;-67
2021/09/18 07:04:38;;;;;;;32.22;21.83;;;20.40;80.20;;;;;;5031647;28;20384;-68
2021/09/18 07:07:03;;;;;;;31.73;21.52;;;20.30;80.00;;;;;;5031549;28;20419;-67
2021/09/18 07:09:29;;;;;;;31.27;21.05;;;20.30;80.10;;;;;;5031431;28;20451;-66
2021/09/18 07:11:55;;;;;;;28.42;19.48;;;20.30;80.40;;;;;;5032048;28;20030;-67
2021/09/18 07:14:21;;;;;;;25.15;18.45;;;20.30;80.60;;;;;;5031528;28;20083;-67
2021/09/18 07:16:47;;;;;;;23.88;19.42;;;20.20;80.60;;;;;;5031388;28;20117;-67
2021/09/18 07:19:13;;;;;;;25.98;19.90;;;20.30;80.60;;;;;;5031484;28;20109;-66
2021/09/18 07:21:38;;;;;;;29.10;20.30;;;20.30;80.50;;;;;;5031712;28;20037;-66
2021/09/18 07:24:06;;;;;;;25.50;18.58;;;20.20;80.60;;;;;;5031701;28;20041;-66
2021/09/18 07:26:32;;;;;;;20.50;17.35;;;20.20;80.70;;;;;;5030373;28;20451;-68
2021/09/18 07:28:58;;;;;;;22.48;18.45;;;20.20;80.90;;;;;;5031677;28;20087;-67
2021/09/18 07:31:24;;;;;;;19.58;16.10;;;20.20;81.20;;;;;;5031223;28;20029;-67
2021/09/18 07:33:49;;;;;;;21.35;17.83;;;20.10;81.20;;;;;;5031309;28;20151;-66
2021/09/18 07:36:16;;;;;;;23.88;19.40;;;20.10;81.50;;;;;;5031265;28;20426;-66
2021/09/18 07:38:42;;;;;;;24.35;18.05;;;20.00;81.70;;;;;;5031239;28;20029;-66
2021/09/18 07:41:07;;;;;;;27.90;19.95;;;20.00;81.80;;;;;;5031394;28;20495;-67
2021/09/18 07:43:33;;;;;;;29.42;20.48;;;20.00;82.00;;;;;;5035051;28;20071;-66
2021/09/18 07:46:01;;;;;;;33.35;23.02;;;19.90;82.10;;;;;;5035063;28;20025;-66
2021/09/18 07:48:28;;;;;;;35.78;22.70;;;19.90;82.30;;;;;;5035065;28;20152;-68
2021/09/18 07:50:54;;;;;;;49.45;27.00;;;19.90;82.40;;;;;;5034930;28;20030;-67
2021/09/18 07:53:19;;;;;;;61.33;29.85;;;19.80;82.60;;;;;;5034921;28;20392;-67
2021/09/18 07:55:45;;;;;;;79.40;36.15;;;19.80;82.70;;;;;;5034850;28;20377;-67
2021/09/18 07:58:11;;;;;;;74.53;34.53;;;19.80;83.00;;;;;;5034723;28;20495;-66
2021/09/18 08:00:36;;;;;;;86.38;38.95;;;19.80;82.90;;;;;;5034728;28;20579;-66
2021/09/18 08:03:02;;;;;;;73.32;35.05;;;19.90;82.90;;;;;;5034649;28;20354;-66
2021/09/18 08:05:28;;;;;;;66.05;31.95;;;19.90;83.00;;;;;;5034656;28;20028;-66
2021/09/18 08:07:54;;;;;;;62.10;30.52;;;19.90;82.80;;;;;;5034560;28;20029;-67
2021/09/18 08:10:20;;;;;;;56.45;30.45;;;20.00;82.80;;;;;;5034178;28;20028;-67
2021/09/18 08:12:48;;;;;;;67.50;32.33;;;20.00;82.70;;;;;;5034380;28;20124;-66
2021/09/18 08:15:15;;;;;;;65.10;31.75;;;20.00;82.80;;;;;;5034669;28;20263;-67
2021/09/18 08:17:42;;;;;;;62.25;31.10;;;20.00;83.00;;;;;;5032980;28;20021;-67
2021/09/18 08:20:09;;;;;;;61.67;29.17;;;20.00;82.80;;;;;;5032977;28;20069;-66
2021/09/18 08:22:35;;;;;;;69.75;33.83;;;20.00;82.70;;;;;;5034256;28;20056;-66
2021/09/18 08:25:00;;;;;;;70.85;33.95;;;20.10;82.50;;;;;;5034395;28;20025;-68
2021/09/18 08:27:26;;;;;;;80.22;37.38;;;20.10;82.60;;;;;;5034492;28;20598;-66
2021/09/18 08:29:52;;;;;;;65.97;35.58;;;20.10;82.60;;;;;;5034313;28;20117;-66
2021/09/18 08:32:17;;;;;;;50.97;29.48;;;20.10;82.60;;;;;;5034039;28;20036;-68
2021/09/18 08:34:43;;;;;;;44.85;28.08;;;20.10;82.70;;;;;;5034013;28;20534;-66
2021/09/18 08:37:08;;;;;;;40.03;26.65;;;20.10;82.90;;;;;;5033917;28;20021;-67
2021/09/18 08:39:35;;;;;;;39.40;27.15;;;20.10;83.20;;;;;;5034077;28;20396;-67
2021/09/18 08:42:05;;;;;;;35.67;26.08;;;20.10;83.50;;;;;;5034126;28;20025;-66
2021/09/18 08:44:33;;;;;;;42.78;34.25;;;20.10;83.60;;;;;;5034054;28;20030;-66
2021/09/18 08:47:00;;;;;;;36.95;30.83;;;20.10;83.60;;;;;;5034059;28;20381;-67
2021/09/18 08:49:28;;;;;;;34.00;29.55;;;20.00;83.80;;;;;;5033900;28;20029;-67
2021/09/18 08:51:54;;;;;;;31.23;26.25;;;20.00;84.20;;;;;;5033127;28;20046;-67
2021/09/18 08:54:19;;;;;;;39.78;31.85;;;19.90;84.30;;;;;;5033823;28;20048;-68
2021/09/18 08:56:45;;;;;;;32.03;27.85;;;19.90;84.80;;;;;;5033765;28;20017;-66
2021/09/18 08:59:11;;;;;;;31.70;28.27;;;19.90;85.10;;;;;;5033721;28;20354;-68
2021/09/18 09:01:37;;;;;;;32.55;29.05;;;19.80;85.40;;;;;;5033703;28;20384;-67
2021/09/18 09:04:07;;;;;;;28.83;25.70;;;19.80;85.80;;;;;;5033564;28;20438;-66
2021/09/18 09:06:44;;;;;;;27.35;24.02;;;19.70;85.90;;;;;;5033582;28;20483;-68
2021/09/18 09:09:10;;;;;;;30.35;25.77;;;19.70;86.30;;;;;;5033773;28;20102;-66
2021/09/18 09:11:36;;;;;;;27.90;24.90;;;19.80;86.50;;;;;;5033647;28;20017;-67
2021/09/18 09:14:05;;;;;;;34.92;28.05;;;19.80;86.90;;;;;;5033639;28;20461;-67
2021/09/18 09:16:34;;;;;;;32.50;28.13;;;19.90;87.00;;;;;;5033378;28;20112;-68
2021/09/18 09:19:13;;;;;;;31.08;26.55;;;20.10;87.40;;;;;;5033399;28;20048;-66
2021/09/18 09:21:52;;;;;;;25.95;22.48;;;20.20;86.20;;;;;;5033419;28;20147;-67
2021/09/18 09:24:20;;;;;;;31.23;26.42;;;20.20;85.60;;;;;;5033275;28;20056;-66
2021/09/18 09:27:06;;;;;;;28.73;24.25;;;20.40;85.30;;;;;;5033257;28;20164;-68
2021/09/18 09:29:46;;;;;;;25.95;22.33;;;20.30;84.90;;;;;;5033167;28;20108;-67
2021/09/18 09:32:25;;;;;;;22.73;20.33;;;20.30;84.80;;;;;;5033207;28;20075;-67
2021/09/18 09:34:54;;;;;;;25.70;21.45;;;20.30;84.80;;;;;;5033045;28;20392;-67
2021/09/18 09:37:21;;;;;;;29.40;24.33;;;20.40;84.70;;;;;;5033062;28;20026;-67
2021/09/18 09:40:08;;;;;;;25.00;22.30;;;20.30;84.80;;;;;;5032904;28;20018;-67
2021/09/18 09:42:40;;;;;;;25.00;21.85;;;20.30;84.90;;;;;;5032925;28;20079;-67
2021/09/18 09:45:10;;;;;;;23.60;21.10;;;20.40;85.10;;;;;;5032978;28;20108;-67
2021/09/18 09:47:36;;;;;;;27.30;23.65;;;20.40;84.80;;;;;;5033006;28;20029;-66
2021/09/18 09:50:03;;;;;;;27.05;22.60;;;20.40;84.70;;;;;;5033000;28;20060;-67
2021/09/18 09:52:34;;;;;;;26.70;22.60;;;20.50;84.80;;;;;;5032871;28;20084;-68
2021/09/18 09:55:12;;;;;;;26.27;21.73;;;20.50;85.10;;;;;;5032644;28;20033;-66
2021/09/18 09:57:39;;;;;;;26.17;23.00;;;20.50;84.80;;;;;;5031206;28;20029;-67
2021/09/18 10:00:15;;;;;;;26.55;23.75;;;20.50;84.50;;;;;;5032383;28;20021;-66
2021/09/18 10:02:43;;;;;;;22.90;19.92;;;20.50;84.40;;;;;;5032406;28;20476;-67
2021/09/18 10:05:14;;;;;;;25.27;22.17;;;20.40;84.60;;;;;;5031539;28;20461;-66
2021/09/18 10:07:40;;;;;;;25.05;22.35;;;20.30;85.70;;;;;;5032275;28;20061;-68
2021/09/18 10:10:08;;;;;;;23.23;20.85;;;20.20;85.10;;;;;;5032317;28;20036;-67
2021/09/18 10:12:36;;;;;;;26.33;23.52;;;20.20;85.50;;;;;;5032456;28;20037;-67
2021/09/18 10:15:05;;;;;;;27.30;24.08;;;20.10;85.60;;;;;;5032106;28;20417;-67
2021/09/18 10:17:33;;;;;;;22.45;20.00;;;20.10;86.10;;;;;;5032115;28;20025;-67
2021/09/18 10:25:40;;;;;;;20.30;18.15;;;19.90;86.60;;;;;;5031904;28;20020;-66
2021/09/18 10:28:14;;;;;;;18.35;16.45;;;19.90;87.00;;;;;;5032128;28;20108;-67
2021/09/18 10:30:51;;;;;;;17.85;15.65;;;19.80;86.90;;;;;;5032200;28;20391;-66
2021/09/18 10:33:32;;;;;;;16.98;14.07;;;19.80;87.30;;;;;;5032045;28;20036;-66
2021/09/18 10:36:03;;;;;;;18.30;14.73;;;19.70;87.40;;;;;;5031889;28;20060;-65
2021/09/18 10:38:31;;;;;;;22.55;20.08;;;19.60;88.20;;;;;;5031642;28;20159;-66
2021/09/18 10:41:06;;;;;;;20.27;18.10;;;19.50;88.70;;;;;;5031796;28;20029;-65
2021/09/18 10:43:41;;;;;;;23.73;21.13;;;19.50;88.80;;;;;;5031929;28;20024;-66
2021/09/18 10:46:10;;;;;;;24.60;21.88;;;19.40;89.60;;;;;;5031744;28;20017;-66
2021/09/18 10:48:40;;;;;;;27.20;21.98;;;19.40;89.70;;;;;;5031556;28;20384;-66
2021/09/18 10:51:07;;;;;;;34.95;24.63;;;19.30;90.00;;;;;;5031517;28;20464;-66
2021/09/18 10:54:10;;;;;;;38.25;21.30;;;19.30;90.20;;;;;;5031765;28;20037;-66
2021/09/18 10:56:56;;;;;;;47.45;23.80;;;19.30;90.60;;;;;;5029421;28;20148;-67
2021/09/18 10:59:40;;;;;;;101.22;35.15;;;19.20;91.00;;;;;;5031436;28;20045;-67
2021/09/18 11:02:34;;;;;;;96.25;31.45;;;19.20;91.50;;;;;;5031564;28;20075;-67
2021/09/18 11:05:11;;;;;;;107.45;33.17;;;19.00;91.50;;;;;;5031509;28;20014;-67
2021/09/18 11:07:39;;;;;;;98.93;32.45;;;18.90;91.90;;;;;;5031471;28;20030;-66
2021/09/18 11:10:28;;;;;;;68.38;26.73;;;18.80;92.30;;;;;;5031444;28;20033;-68
2021/09/18 11:13:09;;;;;;;55.70;22.90;;;18.80;92.80;;;;;;5030405;28;20125;-67
2021/09/18 11:15:49;;;;;;;38.55;20.50;;;18.70;93.00;;;;;;5032731;28;20032;-68
2021/09/18 11:18:31;;;;;;;30.05;17.13;;;18.70;93.20;;;;;;5035690;28;20033;-66
2021/09/18 11:21:07;;;;;;;18.98;15.88;;;18.60;93.30;;;;;;5035594;28;20025;-68
2021/09/18 11:23:43;;;;;;;13.07;11.45;;;18.60;93.50;;;;;;5035404;28;20121;-68
2021/09/18 11:26:35;;;;;;;12.38;10.68;;;18.50;93.90;;;;;;5035312;28;20022;-69
2021/09/18 11:29:24;;;;;;;15.05;11.35;;;18.20;93.90;;;;;;5035556;28;20119;-71
2021/09/18 11:32:10;;;;;;;13.00;10.13;;;18.10;94.30;;;;;;5034240;28;20029;-70
2021/09/18 11:34:55;;;;;;;12.73;9.90;;;17.90;94.50;;;;;;5035242;28;20030;-71
2021/09/18 11:37:33;;;;;;;12.57;9.07;;;17.80;94.60;;;;;;5035285;28;20041;-76
2021/09/18 11:40:11;;;;;;;12.52;9.02;;;17.70;94.90;;;;;;5035313;28;20024;-77
2021/09/18 11:42:44;;;;;;;13.65;10.32;;;17.60;95.10;;;;;;5035188;28;20025;-77
2021/09/18 11:45:18;;;;;;;13.80;10.15;;;17.50;95.20;;;;;;5035092;28;20030;-76
2021/09/18 11:47:46;;;;;;;13.05;10.15;;;17.50;95.40;;;;;;5034912;28;20499;-76
2021/09/18 11:50:28;;;;;;;12.32;8.75;;;17.40;95.80;;;;;;5035184;28;20370;-75
2021/09/18 11:52:59;;;;;;;13.45;9.70;;;17.40;96.00;;;;;;5035226;28;20103;-75
2021/09/18 11:55:43;;;;;;;15.63;10.50;;;17.40;96.40;;;;;;5034877;28;20091;-73
2021/09/18 11:58:15;;;;;;;17.95;12.48;;;17.40;96.70;;;;;;5035102;28;20080;-74
2021/09/18 12:00:47;;;;;;;19.77;13.75;;;17.50;96.80;;;;;;5035280;28;20025;-73
2021/09/18 12:03:18;;;;;;;21.30;16.52;;;17.50;96.80;;;;;;5034797;28;20100;-72
2021/09/18 12:05:49;;;;;;;21.48;16.10;;;17.60;96.40;;;;;;5034663;28;20037;-73
2021/09/18 12:08:18;;;;;;;23.33;17.80;;;17.60;96.60;;;;;;5034534;28;20026;-72
2021/09/18 12:10:44;;;;;;;27.00;19.83;;;17.70;96.90;;;;;;5034921;28;20068;-71
2021/09/18 12:13:10;;;;;;;26.52;20.17;;;17.70;96.60;;;;;;5034807;28;20105;-70
2021/09/18 12:15:40;;;;;;;27.52;19.88;;;17.70;97.20;;;;;;5034632;28;20101;-71
2021/09/18 12:18:09;;;;;;;29.35;20.83;;;17.80;97.80;;;;;;5034629;28;20037;-70
2021/09/18 12:20:37;;;;;;;29.45;21.80;;;17.90;97.60;;;;;;5034429;28;20522;-70
2021/09/18 12:23:04;;;;;;;29.58;20.60;;;17.90;97.00;;;;;;5034285;28;20021;-70
2021/09/18 12:25:31;;;;;;;31.60;21.90;;;18.00;97.20;;;;;;5034354;28;20464;-71
2021/09/18 12:28:00;;;;;;;27.20;19.95;;;18.00;97.10;;;;;;5033419;28;20530;-70
2021/09/18 12:30:42;;;;;;;28.55;20.58;;;18.00;97.80;;;;;;5034209;28;20017;-70
2021/09/18 12:33:15;;;;;;;29.20;20.65;;;18.10;97.80;;;;;;5034790;28;20343;-69
2021/09/18 12:35:45;;;;;;;;;;;18.10;97.50;;;;;;5034637;28;20075;-70
2021/09/18 12:38:13;;;;;;;27.85;20.33;;;18.10;96.80;;;;;;5034159;28;20004;-69
2021/09/18 12:40:42;;;;;;;29.05;19.73;;;18.20;97.70;;;;;;5034160;28;20415;-69